Latest Weather Observations for Redesdale

IDV60801

Issued at 11:05 pm EST Thursday 24 April 2014 (issued every 30 minutes, with the page automatically refreshed every 10 minutes)

About weather observations | Map of weather stations | Latest weather observations for VIC | Other Formats
Station Details ID: 088051 Name: REDESDALE Lat: -37.02 Lon: 144.52 Height: 290.0 m
Data from the previous 72 hours. | See also: Recent months at Redesdale
Date/Time
EST
Temp
°C
App
Temp
°C
Dew
Point
Rel
Hum
%
Delta-T
°C
Wind Press
QNH
hPa
Press
MSL
hPa
Rain
since 9 am
mm
Dir
 
Spd
km/h
Gust
km/h
Spd
kts
Gust
kts
24/11:00pm 5.8 1.7 4.3 90 0.7 S 15 20 8 11 - - 0.0
24/10:30pm 5.3 1.5 4.0 91 0.6 S 13 13 7 7 - - 0.0
24/10:00pm 5.4 1.6 3.7 89 0.7 S 13 15 7 8 - - 0.0
24/09:30pm 5.7 2.2 3.7 87 0.9 S 11 15 6 8 - - 0.0
24/09:00pm 6.0 2.5 3.7 85 1.0 S 11 13 6 7 - - 0.0
24/08:30pm 6.8 3.4 3.8 81 1.3 S 11 13 6 7 - - 0.0
24/08:00pm 7.3 3.4 3.4 76 1.7 S 13 17 7 9 - - 0.0
24/07:30pm 7.2 3.6 2.7 73 1.9 S 11 13 6 7 - - 0.0
24/07:00pm 8.4 4.4 2.8 68 2.4 S 13 15 7 8 - - 0.0
24/06:30pm 8.9 4.9 2.9 66 2.6 S 13 15 7 8 - - 0.0
24/06:00pm 9.8 5.8 3.1 63 2.9 S 13 15 7 8 - - 0.0
24/05:30pm 11.5 8.0 3.3 57 3.7 S 11 15 6 8 - - 0.0
24/05:00pm 13.8 9.9 3.6 50 4.7 S 13 17 7 9 - - 0.0
24/04:30pm 14.9 10.5 2.8 44 5.5 S 15 22 8 12 - - 0.0
24/04:00pm 15.8 11.1 2.9 42 5.9 SSE 17 22 9 12 - - 0.0
24/03:30pm 16.0 11.5 2.1 39 6.3 S 15 24 8 13 - - 0.0
24/03:00pm 16.8 12.9 3.5 41 6.2 S 13 20 7 11 - - 0.0
24/02:30pm 16.9 12.1 4.6 44 5.9 S 19 26 10 14 - - 0.0
24/02:00pm 17.2 12.9 5.2 45 5.8 S 17 22 9 12 - - 0.0
24/01:30pm 17.2 12.8 4.9 44 6.0 SSW 17 28 9 15 - - 0.0
24/01:00pm 16.9 13.2 4.6 44 5.9 S 13 20 7 11 - - 0.0
24/12:30pm 17.2 12.4 5.8 47 5.6 SSW 20 32 11 17 - - 0.0
24/12:00pm 16.5 12.8 6.1 50 5.1 SW 15 24 8 13 - - 0.0
24/11:30am 17.0 14.0 7.9 55 4.7 WSW 13 26 7 14 - - 0.0
24/11:00am 15.3 11.2 8.8 65 3.4 SSW 20 32 11 17 - - 0.0
24/10:30am 15.7 12.1 9.8 68 3.1 SSW 19 32 10 17 - - 0.0
24/10:00am 15.1 11.9 9.9 71 2.7 SW 17 28 9 15 - - 0.0
24/09:30am 11.9 10.7 8.2 78 1.8 SSW 4 7 2 4 - - 0.0
24/09:00am 10.2 8.9 5.8 74 2.1 ENE 2 4 1 2 - - 0.0
24/08:30am 10.6 8.9 5.8 72 2.3 E 4 4 2 2 - - 0.0
24/08:00am 9.2 7.5 5.8 79 1.6 E 4 6 2 3 - - 0.0
24/07:30am 5.6 3.1 4.9 95 0.3 ESE 7 7 4 4 - - 0.0
24/07:00am 3.1 1.5 2.2 94 0.4 CALM 0 0 0 0 - - 0.0
24/06:30am 3.8 2.3 3.1 95 0.3 CALM 0 4 0 2 - - 0.0
24/06:00am 3.7 2.2 3.0 95 0.3 CALM 0 0 0 0 - - 0.0
24/05:30am 3.5 1.6 2.8 95 0.3 SSW 2 4 1 2 - - 0.0
24/05:00am 3.1 1.4 1.9 92 0.5 CALM 0 2 0 1 - - 0.0
24/04:30am 3.8 1.5 2.8 93 0.4 SSW 4 4 2 2 - - 0.0
24/04:00am 3.8 1.5 2.8 93 0.4 SSW 4 4 2 2 - - 0.0
24/03:30am 4.1 1.8 2.9 92 0.5 SSW 4 4 2 2 - - 0.0
24/03:00am 4.2 2.7 2.9 91 0.5 CALM 0 0 0 0 - - 0.0
24/02:30am 4.8 3.4 3.3 90 0.6 SSW 0 2 0 1 - - 0.0
24/02:00am 5.3 3.9 3.8 90 0.6 CALM 0 0 0 0 - - 0.0
24/01:30am 5.3 3.9 3.6 89 0.7 CALM 0 0 0 0 - - 0.0
24/01:00am 5.7 3.7 4.2 90 0.7 SSW 4 4 2 2 - - 0.0
24/12:30am 6.6 4.7 4.8 88 0.8 SSW 4 4 2 2 - - 0.0
24/12:00am 6.4 4.4 4.4 87 0.9 SSW 4 4 2 2 - - 0.0
 
Date/Time
EST
Temp
°C
App
Temp
°C
Dew
Point
Rel
Hum
%
Delta-T
°C
Wind Press
QNH
hPa
Press
MSL
hPa
Rain
since 9 am
mm
Dir
 
Spd
km/h
Gust
km/h
Spd
kts
Gust
kts
23/11:30pm 7.0 5.2 5.2 88 0.8 SSW 4 4 2 2 - - 0.0
23/11:00pm 7.0 5.1 5.0 87 0.9 SSW 4 6 2 3 - - 0.0
23/10:30pm 7.3 5.4 5.1 86 1.0 SSW 4 6 2 3 - - 0.0
23/10:00pm 7.4 5.6 5.2 86 1.0 SSW 4 6 2 3 - - 0.0
23/09:30pm 7.6 5.4 5.2 85 1.1 SSW 6 7 3 4 - - 0.0
23/09:00pm 7.7 5.5 5.5 86 1.0 SSW 6 7 3 4 - - 0.0
23/08:30pm 7.7 5.4 5.0 83 1.2 SW 6 7 3 4 - - 0.0
23/08:00pm 8.8 6.6 5.4 79 1.6 SW 6 6 3 3 - - 0.0
23/07:30pm 9.1 8.1 5.5 78 1.7 CALM 0 6 0 3 - - 0.0
23/07:00pm 10.1 9.0 4.9 70 2.4 CALM 0 0 0 0 - - 0.0
23/06:30pm 11.3 10.2 5.2 66 2.8 CALM 0 0 0 0 - - 0.0
23/06:00pm 13.7 12.4 4.3 53 4.4 CALM 0 0 0 0 - - 0.0
23/05:30pm 14.7 13.1 4.4 50 4.8 WNW 2 4 1 2 - - 0.0
23/05:00pm 15.6 13.7 4.9 49 5.1 WNW 4 7 2 4 - - 0.0
23/04:30pm 16.1 14.2 4.8 47 5.4 WNW 4 6 2 3 - - 0.0
23/04:00pm 16.5 14.3 5.5 48 5.4 NW 6 9 3 5 - - 0.0
23/03:30pm 17.1 14.7 5.1 45 5.8 NW 7 13 4 7 - - 0.0
23/03:00pm 17.2 14.7 4.5 43 6.1 WSW 7 13 4 7 - - 0.0
23/02:30pm 17.2 14.7 3.8 41 6.3 W 6 13 3 7 - - 0.0
23/02:00pm 17.0 14.0 4.3 43 6.1 W 9 17 5 9 - - 0.0
23/01:30pm 17.4 15.1 5.7 46 5.8 WSW 7 15 4 8 - - 0.0
23/01:00pm 17.7 14.9 5.3 44 6.1 WSW 9 17 5 9 - - 0.0
23/12:30pm 17.9 15.7 6.1 46 5.9 W 7 15 4 8 - - 0.0
23/12:00pm 17.4 14.9 6.6 49 5.4 NW 9 19 5 10 - - 0.0
23/11:30am 17.3 14.5 6.8 50 5.3 NW 11 17 6 9 - - 0.0
23/11:00am 16.9 12.6 7.0 52 5.0 NW 19 26 10 14 - - 0.0
23/10:30am 16.4 14.8 8.6 60 4.0 NW 7 11 4 6 - - 0.0
23/10:00am 16.3 15.6 10.2 67 3.3 W 4 7 2 4 - - 0.0
23/09:30am 14.9 14.7 10.3 74 2.4 SW 2 4 1 2 - - 0.0
23/09:00am 12.9 12.5 9.9 82 1.6 SW 2 6 1 3 - - 1.0
23/08:30am 11.4 10.3 9.8 90 0.8 SSW 6 7 3 4 - - 1.0
23/08:00am 9.5 8.2 9.2 98 0.2 SSW 6 7 3 4 - - 1.0
23/07:30am 6.9 5.0 6.6 98 0.1 SSW 6 7 3 4 - - 1.0
23/07:00am 6.3 3.7 5.9 97 0.2 SSW 9 11 5 6 - - 1.0
23/06:30am 6.9 4.7 6.3 96 0.3 SSW 7 7 4 4 - - 1.0
23/06:00am 7.1 5.2 6.5 96 0.3 S 6 9 3 5 - - 1.0
23/05:30am 7.9 5.6 7.3 96 0.3 SSW 9 11 5 6 - - 1.0
23/05:00am 7.2 5.1 6.6 96 0.3 SW 7 9 4 5 - - 1.0
23/04:30am 7.9 6.1 7.1 95 0.4 SSW 6 7 3 4 - - 1.0
23/04:00am 8.1 6.3 7.2 94 0.4 SSW 6 7 3 4 - - 1.0
23/03:30am 8.4 6.1 7.3 93 0.5 SSW 9 11 5 6 - - 1.0
23/03:00am 9.0 7.1 7.6 91 0.7 S 7 11 4 6 - - 1.0
23/02:30am 9.5 6.6 8.1 91 0.7 S 13 17 7 9 - - 1.0
23/02:00am 9.6 6.7 8.2 91 0.7 S 13 15 7 8 - - 1.0
23/01:30am 9.8 7.0 8.4 91 0.7 S 13 17 7 9 - - 1.0
23/01:00am 10.0 7.6 8.6 91 0.7 S 11 17 6 9 - - 1.0
23/12:30am 9.8 7.8 8.6 92 0.6 S 9 13 5 7 - - 1.0
23/12:00am 10.1 7.8 8.9 92 0.6 SSW 11 15 6 8 - - 1.0
 
Date/Time
EST
Temp
°C
App
Temp
°C
Dew
Point
Rel
Hum
%
Delta-T
°C
Wind Press
QNH
hPa
Press
MSL
hPa
Rain
since 9 am
mm
Dir
 
Spd
km/h
Gust
km/h
Spd
kts
Gust
kts
22/11:30pm 10.5 8.3 9.4 93 0.6 SSW 11 15 6 8 - - 1.0
22/11:00pm 10.8 9.0 9.6 92 0.6 S 9 13 5 7 - - 1.0
22/10:30pm 11.1 8.7 10.2 94 0.5 S 13 19 7 10 - - 1.0
22/10:00pm 9.6 7.6 8.7 94 0.4 S 9 11 5 6 - - 1.0
22/09:30pm 10.3 8.8 9.2 93 0.6 S 7 11 4 6 - - 1.0
22/09:00pm 10.5 9.0 9.3 92 0.6 S 7 9 4 5 - - 1.0
22/08:30pm 10.9 9.5 9.5 91 0.7 S 7 9 4 5 - - 1.0
22/08:00pm 11.5 10.2 9.9 90 0.8 S 7 11 4 6 - - 1.0
22/07:30pm 12.0 10.8 10.2 89 0.9 S 7 9 4 5 - - 1.0
22/07:00pm 12.6 11.1 10.7 88 1.0 S 9 9 5 5 - - 1.0
22/06:30pm 13.3 12.4 10.8 85 1.3 SSE 6 7 3 4 - - 1.0
22/06:00pm 13.3 12.2 10.7 84 1.4 S 7 7 4 4 - - 1.0
22/05:30pm 15.0 14.6 11.0 77 2.2 SE 4 6 2 3 - - 1.0
22/05:00pm 16.5 16.8 10.8 69 3.1 CALM 0 0 0 0 - - 1.0
22/04:30pm 16.6 16.2 11.1 70 3.0 N 4 4 2 2 - - 1.0
22/04:00pm 16.9 16.5 11.0 68 3.2 N 4 7 2 4 - - 1.0
22/03:30pm 16.9 16.0 10.5 66 3.5 N 6 11 3 6 - - 1.0
22/03:00pm 16.8 16.2 10.4 66 3.4 NNE 4 11 2 6 - - 1.0
22/02:30pm 16.9 16.5 11.2 69 3.1 NE 4 9 2 5 - - 1.0
22/02:00pm 15.3 15.1 10.3 72 2.7 E 2 6 1 3 - - 1.0
22/01:30pm 15.6 15.1 10.6 72 2.7 ENE 4 9 2 5 - - 0.8
22/01:00pm 14.9 13.8 10.1 73 2.5 ENE 6 9 3 5 - - 0.8
22/12:30pm 15.1 14.7 11.1 77 2.2 NE 4 7 2 4 - - 0.8
22/12:00pm 14.2 13.1 10.0 76 2.2 ENE 6 9 3 5 - - 0.8
22/11:30am 14.2 12.8 11.0 81 1.7 NE 9 13 5 7 - - 0.8
22/11:00am 14.4 13.2 10.2 76 2.2 E 7 9 4 5 - - 0.8
22/10:30am 13.1 11.6 10.5 84 1.4 E 9 11 5 6 - - 0.8
22/10:00am 12.1 11.7 9.8 86 1.2 E 2 4 1 2 - - 0.8
22/09:30am 11.1 10.4 9.9 92 0.6 E 4 6 2 3 - - 0.8
22/09:00am 10.2 7.5 9.0 92 0.6 NE 13 19 7 10 - - 1.6
22/08:30am 10.7 9.6 8.6 87 1.0 E 4 7 2 4 - - 1.0
22/08:00am 11.1 9.9 8.1 82 1.5 ESE 4 7 2 4 - - 0.0
22/07:30am 11.4 10.0 7.1 75 2.1 ENE 4 7 2 4 - - 0.0
22/07:00am 10.1 8.0 6.8 80 1.6 E 7 13 4 7 - - 0.0
22/06:30am 8.9 7.6 6.2 83 1.3 ESE 2 4 1 2 - - 0.0
22/06:00am 9.5 7.6 6.9 84 1.2 SSE 6 9 3 5 - - 0.0
22/05:30am 10.0 8.9 6.7 80 1.6 WNW 2 6 1 3 - - 0.0
22/05:00am 10.0 8.0 6.2 77 1.8 NE 6 7 3 4 - - 0.0
22/04:30am 9.3 7.6 6.0 80 1.5 NE 4 7 2 4 - - 0.0
22/04:00am 10.1 8.1 6.3 77 1.8 NE 6 7 3 4 - - 0.0
22/03:30am 10.0 7.8 6.2 77 1.8 NE 7 11 4 6 - - 0.0
22/03:00am 10.4 8.4 6.2 75 2.0 NE 6 7 3 4 - - 0.0
22/02:30am 11.0 9.8 6.6 74 2.1 NE 2 4 1 2 - - 0.0
22/02:00am 10.9 9.1 7.0 77 1.9 NE 6 7 3 4 - - 0.0
22/01:30am 11.0 9.5 6.7 75 2.1 NE 4 9 2 5 - - 0.0
22/01:00am 11.0 9.0 6.9 76 2.0 NE 7 9 4 5 - - 0.0
22/12:30am 10.8 8.8 6.9 77 1.9 ENE 7 9 4 5 - - 0.0
22/12:00am 11.2 9.2 6.9 75 2.1 ENE 7 11 4 6 - - 0.0
 
Date/Time
EST
Temp
°C
App
Temp
°C
Dew
Point
Rel
Hum
%
Delta-T
°C
Wind Press
QNH
hPa
Press
MSL
hPa
Rain
since 9 am
mm
Dir
 
Spd
km/h
Gust
km/h
Spd
kts
Gust
kts
21/11:30pm 11.4 9.3 6.7 73 2.3 ENE 7 11 4 6 - - 0.0

Other Formats:

Comma delimited format used in spreadsheet applications
http://www.bom.gov.au/fwo/IDV60801/IDV60801.94859.axf

JavaScript Object Notation format (JSON) in row-major order
http://www.bom.gov.au/fwo/IDV60801/IDV60801.94859.json